createdAt,value
2024-03-12T00:00:51.502Z,985.87
2024-03-12T00:01:51.444Z,985.81
2024-03-12T00:02:51.320Z,985.87
2024-03-12T00:03:51.337Z,985.85
2024-03-12T00:04:51.305Z,985.89
2024-03-12T00:05:51.296Z,985.95
2024-03-12T00:06:51.393Z,985.92
2024-03-12T00:07:51.285Z,985.91
2024-03-12T00:08:51.244Z,985.95
2024-03-12T00:09:51.284Z,986.01
2024-03-12T00:10:51.274Z,985.95
2024-03-12T00:11:51.237Z,985.96
2024-03-12T00:12:51.312Z,986.01
2024-03-12T00:13:51.224Z,985.96
2024-03-12T00:14:51.183Z,985.95
2024-03-12T00:15:51.325Z,986.05
2024-03-12T00:16:51.181Z,986.06
2024-03-12T00:17:51.248Z,986.04
2024-03-12T00:18:51.250Z,986.05
2024-03-12T00:19:51.139Z,986.08
2024-03-12T00:20:51.122Z,986.15
2024-03-12T00:21:51.229Z,986.09
2024-03-12T00:22:51.098Z,986.06
2024-03-12T00:23:51.117Z,986.12
2024-03-12T00:24:51.182Z,986.13
2024-03-12T00:25:51.069Z,986.16
2024-03-12T00:26:51.084Z,986.14
2024-03-12T00:27:51.080Z,986.16
2024-03-12T00:28:51.044Z,986.22
2024-03-12T00:29:51.054Z,986.17
2024-03-12T00:30:51.094Z,986.18
2024-03-12T00:31:51.051Z,986.18
2024-03-12T00:32:51.024Z,986.18
2024-03-12T00:33:51.040Z,986.17
2024-03-12T00:34:51.040Z,986.24
2024-03-12T00:35:50.986Z,986.21
2024-03-12T00:36:51.021Z,986.21
2024-03-12T00:37:50.955Z,986.21
2024-03-12T00:38:50.933Z,986.18
2024-03-12T00:39:50.967Z,986.22
2024-03-12T00:40:51.032Z,986.29
2024-03-12T00:41:51.001Z,986.19
2024-03-12T00:42:50.938Z,986.21
2024-03-12T00:43:50.933Z,986.21
2024-03-12T00:44:50.897Z,986.30
2024-03-12T00:45:50.959Z,986.25
2024-03-12T00:46:50.859Z,986.26
2024-03-12T00:47:50.918Z,986.26
2024-03-12T00:48:50.889Z,986.23
2024-03-12T00:49:50.852Z,986.24
2024-03-12T00:50:50.856Z,986.23
2024-03-12T00:51:50.864Z,986.27
2024-03-12T00:52:51.773Z,986.24
2024-03-12T00:53:50.783Z,986.24
2024-03-12T00:54:50.786Z,986.28
2024-03-12T00:55:50.868Z,986.28
2024-03-12T00:56:50.832Z,986.28
2024-03-12T00:57:50.780Z,986.26
2024-03-12T00:58:50.782Z,986.21
2024-03-12T00:59:50.725Z,986.25
2024-03-12T01:00:51.176Z,986.28
2024-03-12T01:01:50.714Z,986.28
2024-03-12T01:02:50.842Z,986.21
2024-03-12T01:03:50.737Z,986.24
2024-03-12T01:04:50.635Z,986.27
2024-03-12T01:05:50.642Z,986.30
2024-03-12T01:06:50.663Z,986.24
2024-03-12T01:07:50.625Z,986.29
2024-03-12T01:08:50.628Z,986.22
2024-03-12T01:09:50.623Z,986.20
2024-03-12T01:10:50.585Z,986.28
2024-03-12T01:11:50.595Z,986.26
2024-03-12T01:12:50.614Z,986.23
2024-03-12T01:13:50.558Z,986.25
2024-03-12T01:14:51.549Z,986.13
2024-03-12T01:15:50.581Z,986.24
2024-03-12T01:16:50.514Z,986.22
2024-03-12T01:17:50.583Z,986.21
2024-03-12T01:18:50.501Z,986.20
2024-03-12T01:19:50.523Z,986.22
2024-03-12T01:20:50.532Z,986.22
2024-03-12T01:21:50.567Z,986.30
2024-03-12T01:22:50.486Z,986.26
2024-03-12T01:23:51.074Z,986.30
2024-03-12T01:24:50.508Z,986.35
2024-03-12T01:25:50.451Z,986.34
2024-03-12T01:26:50.431Z,986.42
2024-03-12T01:27:50.532Z,986.40
2024-03-12T01:28:50.410Z,986.39
2024-03-12T01:29:50.406Z,986.39
2024-03-12T01:30:50.436Z,986.45
2024-03-12T01:31:50.402Z,986.47
2024-03-12T01:32:50.393Z,986.43
2024-03-12T01:33:50.403Z,986.42
2024-03-12T01:34:50.380Z,986.36
2024-03-12T01:35:50.370Z,986.43
2024-03-12T01:36:50.388Z,986.42
2024-03-12T01:37:50.323Z,986.39
2024-03-12T01:38:50.291Z,986.45
2024-03-12T01:39:50.308Z,986.46
2024-03-12T01:40:50.279Z,986.44
2024-03-12T01:41:50.226Z,986.43
2024-03-12T01:42:51.359Z,986.44
2024-03-12T01:43:50.223Z,986.45
2024-03-12T01:44:50.225Z,986.51
2024-03-12T01:45:50.263Z,986.44
2024-03-12T01:46:50.278Z,986.49
2024-03-12T01:47:50.266Z,986.47
2024-03-12T01:48:50.206Z,986.48
2024-03-12T01:49:50.157Z,986.52
2024-03-12T01:50:50.174Z,986.62
2024-03-12T01:51:50.237Z,986.57
2024-03-12T01:52:50.159Z,986.49
2024-03-12T01:53:50.165Z,986.55
2024-03-12T01:54:50.191Z,986.55
2024-03-12T01:55:50.115Z,986.57
2024-03-12T01:56:50.094Z,986.54
2024-03-12T01:57:50.119Z,986.55
2024-03-12T01:58:50.075Z,986.55
2024-03-12T01:59:50.042Z,986.61
2024-03-12T02:00:51.144Z,986.62
2024-03-12T02:01:50.088Z,986.61
2024-03-12T02:02:50.045Z,986.66
2024-03-12T02:03:50.092Z,986.65
2024-03-12T02:04:49.988Z,986.68
2024-03-12T02:05:50.012Z,986.63
2024-03-12T02:06:50.066Z,986.64
2024-03-12T02:07:49.969Z,986.57
2024-03-12T02:08:49.962Z,986.58
2024-03-12T02:09:50.010Z,986.59
2024-03-12T02:10:49.957Z,986.59
2024-03-12T02:11:49.934Z,986.60
2024-03-12T02:12:50.249Z,986.64
2024-03-12T02:13:50.915Z,986.61
2024-03-12T02:14:49.936Z,986.61
2024-03-12T02:15:49.974Z,986.63
2024-03-12T02:16:49.896Z,986.60
2024-03-12T02:17:49.922Z,986.57
2024-03-12T02:18:49.886Z,986.59
2024-03-12T02:19:49.869Z,986.59
2024-03-12T02:20:49.861Z,986.62
2024-03-12T02:21:49.884Z,986.62
2024-03-12T02:22:49.842Z,986.65
2024-03-12T02:23:49.815Z,986.63
2024-03-12T02:24:49.814Z,986.60
2024-03-12T02:25:49.800Z,986.65
2024-03-12T02:26:49.781Z,986.67
2024-03-12T02:27:49.844Z,986.61
2024-03-12T02:28:49.765Z,986.66
2024-03-12T02:29:49.747Z,986.71
2024-03-12T02:30:49.899Z,986.73
2024-03-12T02:31:49.768Z,986.70
2024-03-12T02:32:50.250Z,986.73
2024-03-12T02:33:49.753Z,986.71
2024-03-12T02:34:49.703Z,986.72
2024-03-12T02:35:49.647Z,986.68
2024-03-12T02:36:49.700Z,986.72
2024-03-12T02:37:49.715Z,986.79
2024-03-12T02:38:49.631Z,986.70
2024-03-12T02:39:49.715Z,986.79
2024-03-12T02:40:49.651Z,986.86
2024-03-12T02:41:49.631Z,986.78
2024-03-12T02:42:49.681Z,986.78
2024-03-12T02:43:49.589Z,986.81
2024-03-12T02:44:49.587Z,986.85
2024-03-12T02:45:49.571Z,986.76
2024-03-12T02:46:49.550Z,986.84
2024-03-12T02:47:49.640Z,986.77
2024-03-12T02:48:49.567Z,986.79
2024-03-12T02:49:49.534Z,986.84
2024-03-12T02:50:49.509Z,986.90
2024-03-12T02:51:49.510Z,986.87
2024-03-12T02:52:49.501Z,986.85
2024-03-12T02:53:49.502Z,986.88
2024-03-12T02:54:50.520Z,986.90
2024-03-12T02:55:49.437Z,986.89
2024-03-12T02:56:49.673Z,986.87
2024-03-12T02:57:49.475Z,986.87
2024-03-12T02:58:49.444Z,986.94
2024-03-12T02:59:49.433Z,986.96
2024-03-12T03:00:49.523Z,986.95
2024-03-12T03:01:49.443Z,986.92
2024-03-12T03:02:49.377Z,986.93
2024-03-12T03:03:49.418Z,986.93
2024-03-12T03:04:50.093Z,986.98
2024-03-12T03:05:49.352Z,986.99
2024-03-12T03:06:49.378Z,986.98
2024-03-12T03:07:49.391Z,986.98
2024-03-12T03:08:49.350Z,986.99
2024-03-12T03:09:49.367Z,986.96
2024-03-12T03:10:49.366Z,986.90
2024-03-12T03:11:49.299Z,986.97
2024-03-12T03:12:50.178Z,986.96
2024-03-12T03:13:49.260Z,986.97
2024-03-12T03:14:49.244Z,986.94
2024-03-12T03:15:49.318Z,986.95
2024-03-12T03:16:49.252Z,986.92
2024-03-12T03:17:49.251Z,986.92
2024-03-12T03:18:49.270Z,986.94
2024-03-12T03:19:49.210Z,986.87
2024-03-12T03:20:49.195Z,986.87
2024-03-12T03:21:49.217Z,986.91
2024-03-12T03:22:49.197Z,986.83
2024-03-12T03:23:49.193Z,986.85
2024-03-12T03:24:49.169Z,986.98
2024-03-12T03:25:49.142Z,986.94
2024-03-12T03:26:49.117Z,986.91
2024-03-12T03:27:49.159Z,986.98
2024-03-12T03:28:49.101Z,986.97
2024-03-12T03:29:49.096Z,986.96
2024-03-12T03:30:49.151Z,986.95
2024-03-12T03:31:49.074Z,986.95
2024-03-12T03:32:49.458Z,986.93
2024-03-12T03:33:49.185Z,986.94
2024-03-12T03:34:49.026Z,986.88
2024-03-12T03:35:49.021Z,986.87
2024-03-12T03:36:49.126Z,986.85
2024-03-12T03:37:49.038Z,986.88
2024-03-12T03:38:49.016Z,986.94
2024-03-12T03:39:49.091Z,986.98
2024-03-12T03:40:49.006Z,987.00
2024-03-12T03:41:48.989Z,987.06
2024-03-12T03:42:49.009Z,987.08
2024-03-12T03:43:48.977Z,987.07
2024-03-12T03:44:48.954Z,987.04
2024-03-12T03:45:49.020Z,987.09
2024-03-12T03:46:48.890Z,987.07
2024-03-12T03:47:49.503Z,987.11
2024-03-12T03:48:48.908Z,987.14
2024-03-12T03:49:48.855Z,987.14
2024-03-12T03:50:48.862Z,987.14
2024-03-12T03:51:48.850Z,987.14
2024-03-12T03:52:48.830Z,987.18
2024-03-12T03:53:48.834Z,987.25
2024-03-12T03:54:48.836Z,987.20
2024-03-12T03:55:48.801Z,987.17
2024-03-12T03:56:48.800Z,987.18
2024-03-12T03:57:48.927Z,987.16
2024-03-12T03:58:48.805Z,987.27
2024-03-12T03:59:48.773Z,987.24
2024-03-12T04:00:48.795Z,987.17
2024-03-12T04:01:48.760Z,987.28
2024-03-12T04:02:48.742Z,987.24
2024-03-12T04:03:48.831Z,987.25
2024-03-12T04:04:48.706Z,987.29
2024-03-12T04:05:48.695Z,987.23
2024-03-12T04:06:50.364Z,987.25
2024-03-12T04:07:48.665Z,987.27
2024-03-12T04:08:48.688Z,987.23
2024-03-12T04:09:48.724Z,987.27
2024-03-12T04:10:48.754Z,987.23
2024-03-12T04:11:48.658Z,987.25
2024-03-12T04:12:48.736Z,987.25
2024-03-12T04:13:48.591Z,987.31
2024-03-12T04:14:48.586Z,987.29
2024-03-12T04:15:48.648Z,987.31
2024-03-12T04:16:48.590Z,987.33
2024-03-12T04:17:48.671Z,987.42
2024-03-12T04:18:48.606Z,987.36
2024-03-12T04:19:48.564Z,987.44
2024-03-12T04:20:48.544Z,987.42
2024-03-12T04:21:48.586Z,987.49
2024-03-12T04:22:48.512Z,987.41
2024-03-12T04:23:48.493Z,987.44
2024-03-12T04:24:48.559Z,987.51
2024-03-12T04:25:48.490Z,987.53
2024-03-12T04:26:48.472Z,987.51
2024-03-12T04:27:48.502Z,987.50
2024-03-12T04:28:48.450Z,987.50
2024-03-12T04:29:48.466Z,987.49
2024-03-12T04:30:48.482Z,987.47
2024-03-12T04:31:48.431Z,987.52
2024-03-12T04:32:48.690Z,987.58
2024-03-12T04:33:48.472Z,987.59
2024-03-12T04:34:48.370Z,987.60
2024-03-12T04:35:48.375Z,987.50
2024-03-12T04:36:48.403Z,987.54
2024-03-12T04:37:48.416Z,987.51
2024-03-12T04:38:48.373Z,987.54
2024-03-12T04:39:48.515Z,987.52
2024-03-12T04:40:48.310Z,987.56
2024-03-12T04:41:48.333Z,987.59
2024-03-12T04:42:48.371Z,987.56
2024-03-12T04:43:48.297Z,987.56
2024-03-12T04:44:48.311Z,987.57
2024-03-12T04:45:48.328Z,987.54
2024-03-12T04:46:48.274Z,987.60
2024-03-12T04:47:50.177Z,987.55
2024-03-12T04:48:48.268Z,987.66
2024-03-12T04:49:48.239Z,987.59
2024-03-12T04:50:48.215Z,987.63
2024-03-12T04:51:48.233Z,987.65
2024-03-12T04:52:48.204Z,987.67
2024-03-12T04:53:48.211Z,987.69
2024-03-12T04:54:48.235Z,987.69
2024-03-12T04:55:48.171Z,987.74
2024-03-12T04:56:48.203Z,987.66
2024-03-12T04:57:49.163Z,987.69
2024-03-12T04:58:48.210Z,987.70
2024-03-12T04:59:48.172Z,987.70
2024-03-12T05:00:48.244Z,987.68
2024-03-12T05:01:48.193Z,987.64
2024-03-12T05:02:48.096Z,987.66
2024-03-12T05:03:48.113Z,987.76
2024-03-12T05:04:48.084Z,987.73
2024-03-12T05:05:48.048Z,987.70
2024-03-12T05:06:48.102Z,987.66
2024-03-12T05:07:48.051Z,987.68
2024-03-12T05:08:48.014Z,987.67
2024-03-12T05:09:48.042Z,987.74
2024-03-12T05:10:48.047Z,987.77
2024-03-12T05:11:48.027Z,987.84
2024-03-12T05:12:48.012Z,987.76
2024-03-12T05:13:47.983Z,987.83
2024-03-12T05:14:47.961Z,987.76
2024-03-12T05:15:47.961Z,987.74
2024-03-12T05:16:47.939Z,987.78
2024-03-12T05:17:47.949Z,987.70
2024-03-12T05:18:47.961Z,987.78
2024-03-12T05:19:47.896Z,987.82
2024-03-12T05:20:47.896Z,987.95
2024-03-12T05:21:47.909Z,987.98
2024-03-12T05:22:47.874Z,988.04
2024-03-12T05:23:47.889Z,988.08
2024-03-12T05:24:47.870Z,988.04
2024-03-12T05:25:47.976Z,988.05
2024-03-12T05:26:47.845Z,988.03
2024-03-12T05:27:47.848Z,988.03
2024-03-12T05:28:47.812Z,988.06
2024-03-12T05:29:47.797Z,988.07
2024-03-12T05:30:47.820Z,988.01
2024-03-12T05:31:47.795Z,988.08
2024-03-12T05:32:47.838Z,988.05
2024-03-12T05:33:47.771Z,988.03
2024-03-12T05:34:47.737Z,988.13
2024-03-12T05:35:47.757Z,988.14
2024-03-12T05:36:47.798Z,988.14
2024-03-12T05:37:47.722Z,988.18
2024-03-12T05:38:47.700Z,988.22
2024-03-12T05:39:47.773Z,988.17
2024-03-12T05:40:47.768Z,988.23
2024-03-12T05:41:47.686Z,988.23
2024-03-12T05:42:47.733Z,988.22
2024-03-12T05:43:50.276Z,988.26
2024-03-12T05:44:48.651Z,988.26
2024-03-12T05:45:47.726Z,988.30
2024-03-12T05:46:47.778Z,988.27
2024-03-12T05:47:47.726Z,988.26
2024-03-12T05:48:47.603Z,988.26
2024-03-12T05:49:47.612Z,988.30
2024-03-12T05:50:47.593Z,988.35
2024-03-12T05:51:47.622Z,988.34
2024-03-12T05:52:47.577Z,988.38
2024-03-12T05:53:47.546Z,988.39
2024-03-12T05:54:47.598Z,988.34
2024-03-12T05:55:47.558Z,988.36
2024-03-12T05:56:47.516Z,988.39
2024-03-12T05:57:47.540Z,988.35
2024-03-12T05:58:47.959Z,988.40
2024-03-12T05:59:47.470Z,988.42
2024-03-12T06:00:47.483Z,988.46
2024-03-12T06:01:47.513Z,988.41
2024-03-12T06:02:47.480Z,988.44
2024-03-12T06:03:47.651Z,988.52
2024-03-12T06:04:47.458Z,988.45
2024-03-12T06:05:47.444Z,988.44
2024-03-12T06:06:47.403Z,988.48
2024-03-12T06:07:47.400Z,988.49
2024-03-12T06:08:47.423Z,988.42
2024-03-12T06:09:47.417Z,988.44
2024-03-12T06:10:47.366Z,988.44
2024-03-12T06:11:47.385Z,988.46
2024-03-12T06:12:47.370Z,988.48
2024-03-12T06:13:47.421Z,988.51
2024-03-12T06:14:47.331Z,988.52
2024-03-12T06:15:47.512Z,988.48
2024-03-12T06:16:47.297Z,988.53
2024-03-12T06:17:48.139Z,988.49
2024-03-12T06:18:47.389Z,988.59
2024-03-12T06:19:47.391Z,988.57
2024-03-12T06:20:47.261Z,988.60
2024-03-12T06:21:47.296Z,988.53
2024-03-12T06:22:47.212Z,988.55
2024-03-12T06:23:47.198Z,988.53
2024-03-12T06:24:47.260Z,988.60
2024-03-12T06:25:47.244Z,988.59
2024-03-12T06:26:47.181Z,988.56
2024-03-12T06:27:47.186Z,988.61
2024-03-12T06:28:47.220Z,988.55
2024-03-12T06:29:47.163Z,988.64
2024-03-12T06:30:47.271Z,988.65
2024-03-12T06:31:47.167Z,988.65
2024-03-12T06:32:47.134Z,988.63
2024-03-12T06:33:47.161Z,988.67
2024-03-12T06:34:48.751Z,988.64
2024-03-12T06:35:48.106Z,988.63
2024-03-12T06:36:47.139Z,988.70
2024-03-12T06:37:47.081Z,988.72
2024-03-12T06:38:47.062Z,988.66
2024-03-12T06:39:47.130Z,988.76
2024-03-12T06:40:47.076Z,988.72
2024-03-12T06:41:47.028Z,988.76
2024-03-12T06:42:47.040Z,988.79
2024-03-12T06:43:47.039Z,988.82
2024-03-12T06:44:46.988Z,988.83
2024-03-12T06:45:47.121Z,988.86
2024-03-12T06:46:46.985Z,988.82
2024-03-12T06:47:47.014Z,988.83
2024-03-12T06:48:46.968Z,988.83
2024-03-12T06:49:46.945Z,988.79
2024-03-12T06:50:47.230Z,988.84
2024-03-12T06:51:47.016Z,988.77
2024-03-12T06:52:46.942Z,988.86
2024-03-12T06:53:46.915Z,988.86
2024-03-12T06:54:46.916Z,988.87
2024-03-12T06:55:47.033Z,988.89
2024-03-12T06:56:47.021Z,988.88
2024-03-12T06:57:46.942Z,988.94
2024-03-12T06:58:47.019Z,988.92
2024-03-12T06:59:46.847Z,988.86
2024-03-12T07:00:46.874Z,988.92
2024-03-12T07:01:46.899Z,988.91
2024-03-12T07:02:46.935Z,988.97
2024-03-12T07:03:49.093Z,988.99
2024-03-12T07:04:46.808Z,988.97
2024-03-12T07:05:46.774Z,988.95
2024-03-12T07:06:46.810Z,988.96
2024-03-12T07:07:46.780Z,989.05
2024-03-12T07:08:46.774Z,989.12
2024-03-12T07:09:46.786Z,989.07
2024-03-12T07:10:47.144Z,989.04
2024-03-12T07:11:46.716Z,989.06
2024-03-12T07:12:46.739Z,989.03
2024-03-12T07:13:46.695Z,989.10
2024-03-12T07:14:46.843Z,989.08
2024-03-12T07:15:46.795Z,989.06
2024-03-12T07:16:46.683Z,989.13
2024-03-12T07:17:46.690Z,989.04
2024-03-12T07:18:46.655Z,989.14
2024-03-12T07:19:46.672Z,989.12
2024-03-12T07:20:47.599Z,989.09
2024-03-12T07:21:46.635Z,989.16
2024-03-12T07:22:47.065Z,989.18
2024-03-12T07:23:46.715Z,989.17
2024-03-12T07:24:46.609Z,989.19
2024-03-12T07:25:46.586Z,989.17
2024-03-12T07:26:46.540Z,989.20
2024-03-12T07:27:46.633Z,989.15
2024-03-12T07:28:46.579Z,989.17
2024-03-12T07:29:46.503Z,989.20
2024-03-12T07:30:46.589Z,989.16
2024-03-12T07:31:46.580Z,989.17
2024-03-12T07:32:46.542Z,989.15
2024-03-12T07:33:46.512Z,989.17
2024-03-12T07:34:46.466Z,989.20
2024-03-12T07:35:46.448Z,989.23
2024-03-12T07:36:46.475Z,989.22
2024-03-12T07:37:46.459Z,989.21
2024-03-12T07:38:46.423Z,989.21
2024-03-12T07:39:46.405Z,989.24
2024-03-12T07:40:46.403Z,989.20
2024-03-12T07:41:46.392Z,989.20
2024-03-12T07:42:46.416Z,989.21
2024-03-12T07:43:46.385Z,989.26
2024-03-12T07:44:46.339Z,989.23
2024-03-12T07:45:46.356Z,989.23
2024-03-12T07:46:46.306Z,989.32
2024-03-12T07:47:46.363Z,989.30
2024-03-12T07:48:46.400Z,989.27
2024-03-12T07:49:46.301Z,989.23
2024-03-12T07:50:46.313Z,989.32
2024-03-12T07:51:46.280Z,989.28
2024-03-12T07:52:46.260Z,989.28
2024-03-12T07:53:46.273Z,989.27
2024-03-12T07:54:46.272Z,989.19
2024-03-12T07:55:46.217Z,989.25
2024-03-12T07:56:46.285Z,989.21
2024-03-12T07:57:46.282Z,989.33
2024-03-12T07:58:46.185Z,989.32
2024-03-12T07:59:46.183Z,989.25
2024-03-12T08:00:47.188Z,989.30
2024-03-12T08:01:46.192Z,989.31
2024-03-12T08:02:46.133Z,989.24
2024-03-12T08:03:46.284Z,989.22
2024-03-12T08:04:46.137Z,989.29
2024-03-12T08:05:46.132Z,989.21
2024-03-12T08:06:46.225Z,989.22
2024-03-12T08:07:46.236Z,989.24
2024-03-12T08:08:46.161Z,989.28
2024-03-12T08:09:46.150Z,989.24
2024-03-12T08:10:46.048Z,989.26
2024-03-12T08:11:46.086Z,989.32
2024-03-12T08:12:46.054Z,989.35
2024-03-12T08:13:46.056Z,989.26
2024-03-12T08:14:46.064Z,989.31
2024-03-12T08:15:46.059Z,989.30
2024-03-12T08:16:46.040Z,989.34
2024-03-12T08:17:48.209Z,989.38
2024-03-12T08:18:47.055Z,989.31
2024-03-12T08:19:46.207Z,989.41
2024-03-12T08:20:45.971Z,989.39
2024-03-12T08:21:46.114Z,989.42
2024-03-12T08:22:45.947Z,989.35
2024-03-12T08:23:45.957Z,989.43
2024-03-12T08:24:46.056Z,989.50
2024-03-12T08:25:55.204Z,989.50
2024-03-12T08:26:47.922Z,989.45
2024-03-12T08:27:45.931Z,989.49
2024-03-12T08:28:45.839Z,989.52
2024-03-12T08:29:45.885Z,989.50
2024-03-12T08:30:45.943Z,989.54
2024-03-12T08:31:51.703Z,989.51
2024-03-12T08:32:46.868Z,989.59
2024-03-12T08:33:45.883Z,989.53
2024-03-12T08:34:45.789Z,989.57
2024-03-12T08:35:45.904Z,989.47
2024-03-12T08:36:45.890Z,989.58
2024-03-12T08:37:45.843Z,989.53
2024-03-12T08:38:45.845Z,989.61
2024-03-12T08:39:45.894Z,989.56
2024-03-12T08:40:45.811Z,989.61
2024-03-12T08:41:45.767Z,989.56
2024-03-12T08:42:54.021Z,989.59
2024-03-12T08:43:46.755Z,989.56
2024-03-12T08:44:45.727Z,989.63
2024-03-12T08:45:45.731Z,989.63
2024-03-12T08:46:45.702Z,989.58
2024-03-12T08:47:45.694Z,989.65
2024-03-12T08:48:45.685Z,989.66
2024-03-12T08:49:45.662Z,989.64
2024-03-12T08:50:45.658Z,989.63
2024-03-12T08:51:45.752Z,989.67
2024-03-12T08:52:45.620Z,989.57
2024-03-12T08:53:45.603Z,989.68
2024-03-12T08:54:45.715Z,989.62
2024-03-12T08:55:45.622Z,989.68
2024-03-12T08:56:45.609Z,989.72
2024-03-12T08:57:45.618Z,989.71
2024-03-12T08:58:45.571Z,989.75
2024-03-12T08:59:45.547Z,989.76
2024-03-12T09:00:45.695Z,989.72
2024-03-12T09:01:45.912Z,989.68
2024-03-12T09:02:45.515Z,989.76
2024-03-12T09:03:47.056Z,989.82
2024-03-12T09:04:46.590Z,989.74
2024-03-12T09:05:45.513Z,989.76
2024-03-12T09:06:45.538Z,989.77
2024-03-12T09:07:45.449Z,989.78
2024-03-12T09:08:45.441Z,989.84
2024-03-12T09:09:45.627Z,989.81
2024-03-12T09:10:45.505Z,989.79
2024-03-12T09:11:45.449Z,989.80
2024-03-12T09:12:45.437Z,989.86
2024-03-12T09:13:45.393Z,989.88
2024-03-12T09:14:45.403Z,989.84
2024-03-12T09:15:45.421Z,989.88
2024-03-12T09:16:45.439Z,989.90
2024-03-12T09:17:45.374Z,989.88
2024-03-12T09:18:45.454Z,989.84
2024-03-12T09:19:45.328Z,989.86
2024-03-12T09:20:45.325Z,989.87
2024-03-12T09:21:45.322Z,989.86
2024-03-12T09:22:45.279Z,989.90
2024-03-12T09:23:53.206Z,989.92
2024-03-12T09:24:46.327Z,989.89
2024-03-12T09:25:45.274Z,989.92
2024-03-12T09:26:45.346Z,989.89
2024-03-12T09:27:45.248Z,989.86
2024-03-12T09:28:46.486Z,989.90
2024-03-12T09:29:45.256Z,989.86
2024-03-12T09:30:45.266Z,989.89
2024-03-12T09:31:45.212Z,989.91
2024-03-12T09:32:45.282Z,989.94
2024-03-12T09:33:45.206Z,989.91
2024-03-12T09:34:45.184Z,989.94
2024-03-12T09:35:45.171Z,989.95
2024-03-12T09:36:45.187Z,989.95
2024-03-12T09:37:45.194Z,989.94
2024-03-12T09:38:45.460Z,989.93
2024-03-12T09:39:45.220Z,989.88
2024-03-12T09:40:45.140Z,989.98
2024-03-12T09:41:45.085Z,989.97
2024-03-12T09:42:45.159Z,989.98
2024-03-12T09:43:45.331Z,989.92
2024-03-12T09:44:45.049Z,989.97
2024-03-12T09:45:45.129Z,989.93
2024-03-12T09:46:45.031Z,989.91
2024-03-12T09:47:45.016Z,989.93
2024-03-12T09:48:45.068Z,989.94
2024-03-12T09:49:45.052Z,989.97
2024-03-12T09:50:44.977Z,989.98
2024-03-12T09:51:45.117Z,989.97
2024-03-12T09:52:45.000Z,989.99
2024-03-12T09:53:44.982Z,990.04
2024-03-12T09:54:44.992Z,990.02
2024-03-12T09:55:44.974Z,990.01
2024-03-12T09:56:44.908Z,990.07
2024-03-12T09:57:45.648Z,990.02
2024-03-12T09:58:45.029Z,990.01
2024-03-12T09:59:44.917Z,990.09
2024-03-12T10:00:44.930Z,990.04
2024-03-12T10:01:44.992Z,990.04
2024-03-12T10:02:44.886Z,990.05
2024-03-12T10:03:44.933Z,990.12
2024-03-12T10:04:44.843Z,990.09
2024-03-12T10:05:44.879Z,990.02
2024-03-12T10:06:44.848Z,990.12
2024-03-12T10:07:44.811Z,990.09
2024-03-12T10:08:44.847Z,990.09
2024-03-12T10:09:44.815Z,990.14
2024-03-12T10:10:44.861Z,990.14
2024-03-12T10:11:44.787Z,990.09
2024-03-12T10:12:44.796Z,990.10
2024-03-12T10:13:44.788Z,990.18
2024-03-12T10:14:44.763Z,990.11
2024-03-12T10:15:44.752Z,990.17
2024-03-12T10:16:44.749Z,990.10
2024-03-12T10:17:44.753Z,990.10
2024-03-12T10:18:44.685Z,990.14
2024-03-12T10:19:44.764Z,990.15
2024-03-12T10:20:44.693Z,990.13
2024-03-12T10:21:44.708Z,990.12
2024-03-12T10:22:44.712Z,990.13
2024-03-12T10:23:44.703Z,990.16
2024-03-12T10:24:44.686Z,990.17
2024-03-12T10:25:44.619Z,990.19
2024-03-12T10:26:44.638Z,990.19
2024-03-12T10:27:51.260Z,990.20
2024-03-12T10:28:47.189Z,990.18
2024-03-12T10:29:44.641Z,990.21
2024-03-12T10:30:44.631Z,990.21
2024-03-12T10:31:44.650Z,990.22
2024-03-12T10:32:44.598Z,990.21
2024-03-12T10:33:44.559Z,990.16
2024-03-12T10:34:44.566Z,990.25
2024-03-12T10:35:44.547Z,990.22
2024-03-12T10:36:44.572Z,990.21
2024-03-12T10:37:44.495Z,990.17
2024-03-12T10:38:44.512Z,990.25
2024-03-12T10:39:44.489Z,990.17
2024-03-12T10:40:44.491Z,990.23
2024-03-12T10:41:44.559Z,990.23
2024-03-12T10:42:44.499Z,990.29
2024-03-12T10:43:44.455Z,990.24
2024-03-12T10:44:44.440Z,990.28
2024-03-12T10:45:44.473Z,990.25
2024-03-12T10:46:44.880Z,990.23
2024-03-12T10:47:44.488Z,990.21
2024-03-12T10:48:44.471Z,990.23
2024-03-12T10:49:44.404Z,990.23
2024-03-12T10:50:44.379Z,990.24
2024-03-12T10:51:44.572Z,990.25
2024-03-12T10:52:44.369Z,990.26
2024-03-12T10:53:44.408Z,990.30
2024-03-12T10:54:48.461Z,990.32
2024-03-12T10:55:46.558Z,990.36
2024-03-12T10:56:44.365Z,990.29
2024-03-12T10:57:44.474Z,990.30
2024-03-12T10:58:44.308Z,990.31
2024-03-12T10:59:44.370Z,990.38
2024-03-12T11:00:44.364Z,990.30
2024-03-12T11:01:44.368Z,990.31
2024-03-12T11:02:44.303Z,990.37
2024-03-12T11:03:44.428Z,990.39
2024-03-12T11:04:44.243Z,990.40
2024-03-12T11:05:44.259Z,990.38
2024-03-12T11:06:44.995Z,990.38
2024-03-12T11:07:44.242Z,990.38
2024-03-12T11:08:44.205Z,990.38
2024-03-12T11:09:44.282Z,990.37
2024-03-12T11:10:44.229Z,990.36
2024-03-12T11:11:44.174Z,990.43
2024-03-12T11:12:44.255Z,990.40
2024-03-12T11:13:44.134Z,990.33
2024-03-12T11:14:44.154Z,990.40
2024-03-12T11:15:44.252Z,990.42
2024-03-12T11:16:44.156Z,990.39
2024-03-12T11:17:44.150Z,990.41
2024-03-12T11:18:44.467Z,990.42
2024-03-12T11:19:44.102Z,990.38
2024-03-12T11:20:44.096Z,990.40
2024-03-12T11:21:44.123Z,990.40
2024-03-12T11:22:45.027Z,990.43
2024-03-12T11:23:44.069Z,990.45
2024-03-12T11:24:44.330Z,990.39
2024-03-12T11:25:45.290Z,990.43
2024-03-12T11:26:44.005Z,990.47
2024-03-12T11:27:44.058Z,990.50
2024-03-12T11:28:43.993Z,990.41
2024-03-12T11:29:44.038Z,990.45
2024-03-12T11:30:44.038Z,990.42
2024-03-12T11:31:43.966Z,990.42
2024-03-12T11:32:44.011Z,990.48
2024-03-12T11:33:44.033Z,990.43
2024-03-12T11:34:44.941Z,990.42
2024-03-12T11:35:43.966Z,990.44
2024-03-12T11:36:43.960Z,990.42
2024-03-12T11:37:43.894Z,990.44
2024-03-12T11:38:43.915Z,990.50
2024-03-12T11:39:43.953Z,990.40
2024-03-12T11:40:43.899Z,990.43
2024-03-12T11:41:43.850Z,990.38
2024-03-12T11:42:43.964Z,990.48
2024-03-12T11:43:43.855Z,990.41
2024-03-12T11:44:43.836Z,990.48
2024-03-12T11:45:43.923Z,990.48
2024-03-12T11:46:43.866Z,990.43
2024-03-12T11:47:43.980Z,990.39
2024-03-12T11:48:43.836Z,990.43
2024-03-12T11:49:43.796Z,990.42
2024-03-12T11:50:43.858Z,990.44
2024-03-12T11:51:43.812Z,990.44
2024-03-12T11:52:43.782Z,990.47
2024-03-12T11:53:43.765Z,990.42
2024-03-12T11:54:43.756Z,990.48
2024-03-12T11:55:43.762Z,990.43
2024-03-12T11:56:43.775Z,990.43
2024-03-12T11:57:43.754Z,990.39
2024-03-12T11:58:43.693Z,990.48
2024-03-12T11:59:43.724Z,990.47
2024-03-12T12:00:43.794Z,990.40
2024-03-12T12:01:43.729Z,990.44
2024-03-12T12:02:43.739Z,990.41
2024-03-12T12:03:43.683Z,990.45
2024-03-12T12:04:44.463Z,990.44
2024-03-12T12:05:43.622Z,990.38
2024-03-12T12:06:43.676Z,990.42
2024-03-12T12:07:43.813Z,990.38
2024-03-12T12:08:50.386Z,990.44
2024-03-12T12:09:44.639Z,990.44
2024-03-12T12:10:43.626Z,990.46
2024-03-12T12:11:43.602Z,990.49
2024-03-12T12:12:43.600Z,990.44
2024-03-12T12:13:43.530Z,990.55
2024-03-12T12:14:43.574Z,990.47
2024-03-12T12:15:43.580Z,990.52
2024-03-12T12:16:43.516Z,990.46
2024-03-12T12:17:43.511Z,990.54
2024-03-12T12:18:43.527Z,990.46
2024-03-12T12:19:43.726Z,990.54
2024-03-12T12:20:43.527Z,990.49
2024-03-12T12:21:43.506Z,990.46
2024-03-12T12:22:43.502Z,990.58
2024-03-12T12:23:43.482Z,990.52
2024-03-12T12:24:43.503Z,990.49
2024-03-12T12:25:43.437Z,990.42
2024-03-12T12:26:44.415Z,990.56
2024-03-12T12:27:43.396Z,990.52
2024-03-12T12:28:43.423Z,990.48